createdAt,value
2022-10-19T00:00:39.997Z,23.91
2022-10-19T00:01:41.641Z,23.89
2022-10-19T00:02:43.211Z,23.90
2022-10-19T00:03:46.837Z,23.91
2022-10-19T00:04:48.437Z,23.91
2022-10-19T00:05:49.975Z,23.91
2022-10-19T00:06:51.486Z,23.91
2022-10-19T00:07:54.560Z,23.89
2022-10-19T00:09:01.386Z,23.89
2022-10-19T00:10:04.447Z,23.91
2022-10-19T00:11:06.094Z,23.89
2022-10-19T00:12:07.670Z,23.89
2022-10-19T00:13:09.213Z,23.90
2022-10-19T00:14:20.016Z,23.87
2022-10-19T00:15:21.554Z,23.89
2022-10-19T00:16:24.374Z,23.89
2022-10-19T00:17:25.917Z,23.89
2022-10-19T00:18:27.588Z,23.89
2022-10-19T00:19:29.336Z,23.88
2022-10-19T00:20:30.869Z,23.87
2022-10-19T00:21:33.328Z,23.85
2022-10-19T00:22:35.021Z,23.85
2022-10-19T00:23:36.856Z,23.84
2022-10-19T00:24:38.444Z,23.84
2022-10-19T00:25:39.949Z,23.84
2022-10-19T00:26:41.972Z,23.82
2022-10-19T00:27:43.544Z,23.83
2022-10-19T00:28:45.507Z,23.85
2022-10-19T00:29:47.088Z,23.85
2022-10-19T00:31:51.994Z,23.86
2022-10-19T00:32:53.541Z,23.86
2022-10-19T00:33:56.869Z,23.87
2022-10-19T00:34:58.458Z,23.85
2022-10-19T00:36:00.323Z,23.85
2022-10-19T00:37:01.943Z,23.84
2022-10-19T00:38:03.459Z,23.86
2022-10-19T00:39:07.662Z,23.86
2022-10-19T00:40:09.865Z,23.87
2022-10-19T00:41:11.743Z,23.87
2022-10-19T00:42:13.285Z,23.88
2022-10-19T00:43:16.461Z,23.88
2022-10-19T00:44:17.991Z,23.89
2022-10-19T00:45:19.549Z,23.89
2022-10-19T00:46:22.026Z,23.88
2022-10-19T00:47:24.614Z,23.90
2022-10-19T00:48:30.529Z,23.90
2022-10-19T00:49:35.859Z,23.90
2022-10-19T00:50:37.916Z,23.90
2022-10-19T00:51:47.212Z,23.85
2022-10-19T00:52:48.831Z,23.87
2022-10-19T00:53:50.874Z,23.87
2022-10-19T00:54:55.316Z,23.88
2022-10-19T00:55:58.539Z,23.87
2022-10-19T00:57:00.518Z,23.87
2022-10-19T00:58:03.165Z,23.87
2022-10-19T00:59:05.922Z,23.85
2022-10-19T01:00:09.029Z,23.87
2022-10-19T01:01:16.410Z,23.85
2022-10-19T01:02:18.129Z,23.89
2022-10-19T01:03:20.816Z,23.89
2022-10-19T01:04:24.571Z,23.87
2022-10-19T01:05:27.575Z,23.87
2022-10-19T01:06:29.522Z,23.87
2022-10-19T01:07:31.236Z,23.87
2022-10-19T01:08:32.939Z,23.86
2022-10-19T01:09:35.051Z,23.84
2022-10-19T01:10:57.326Z,23.81
2022-10-19T01:12:04.532Z,23.84
2022-10-19T01:13:12.079Z,23.87
2022-10-19T01:14:14.561Z,23.88
2022-10-19T01:17:20.641Z,23.86
2022-10-19T01:18:49.700Z,23.86
2022-10-19T01:20:07.972Z,23.86
2022-10-19T01:21:09.502Z,23.91
2022-10-19T01:22:41.543Z,23.85
2022-10-19T01:24:02.842Z,23.85
2022-10-19T01:25:41.434Z,23.82
2022-10-19T01:27:10.781Z,23.81
2022-10-19T01:28:18.736Z,23.87
2022-10-19T01:29:41.868Z,23.86
2022-10-19T01:30:58.526Z,23.88
2022-10-19T01:32:19.348Z,23.87
2022-10-19T01:33:35.908Z,23.89
2022-10-19T01:34:55.906Z,23.85
2022-10-19T01:36:16.041Z,23.81
2022-10-19T01:37:20.879Z,23.85
2022-10-19T01:38:43.096Z,23.83
2022-10-19T01:39:59.085Z,23.85
2022-10-19T01:41:18.156Z,23.81
2022-10-19T01:42:36.857Z,23.80
2022-10-19T01:44:01.366Z,23.78
2022-10-19T01:45:08.012Z,23.81
2022-10-19T01:46:18.176Z,23.79
2022-10-19T01:47:26.702Z,23.79
2022-10-19T01:48:35.500Z,23.76
2022-10-19T01:49:54.214Z,23.78
2022-10-19T01:51:17.064Z,23.75
2022-10-19T01:52:20.975Z,23.80
2022-10-19T01:53:24.505Z,23.76
2022-10-19T01:54:30.928Z,23.77
2022-10-19T01:55:34.120Z,23.76
2022-10-19T01:56:37.765Z,23.77
2022-10-19T01:57:46.154Z,23.73
2022-10-19T01:58:49.555Z,23.75
2022-10-19T01:59:52.621Z,23.72
2022-10-19T02:00:57.596Z,23.71
2022-10-19T02:01:59.243Z,23.73
2022-10-19T02:03:01.708Z,23.73
2022-10-19T02:04:04.213Z,23.72
2022-10-19T02:05:07.590Z,23.73
2022-10-19T02:06:11.532Z,23.73
2022-10-19T02:07:13.344Z,23.73
2022-10-19T02:08:20.573Z,23.72
2022-10-19T02:09:22.363Z,23.71
2022-10-19T02:10:25.793Z,23.72
2022-10-19T02:11:28.612Z,23.73
2022-10-19T02:12:33.750Z,23.71
2022-10-19T02:13:37.526Z,23.73
2022-10-19T02:14:44.328Z,23.72
2022-10-19T02:15:49.905Z,23.71
2022-10-19T02:16:59.306Z,23.69
2022-10-19T02:18:02.514Z,23.73
2022-10-19T02:19:08.532Z,23.73
2022-10-19T02:20:10.162Z,23.70
2022-10-19T02:21:11.844Z,23.70
2022-10-19T02:22:13.801Z,23.68
2022-10-19T02:23:20.695Z,23.69
2022-10-19T02:24:22.372Z,23.74
2022-10-19T02:25:25.213Z,23.72
2022-10-19T02:26:27.283Z,23.71
2022-10-19T02:27:29.122Z,23.70
2022-10-19T02:28:31.308Z,23.72
2022-10-19T02:29:34.428Z,23.71
2022-10-19T02:30:35.999Z,23.72
2022-10-19T02:31:38.443Z,23.69
2022-10-19T02:32:40.572Z,23.67
2022-10-19T02:33:42.293Z,23.66
2022-10-19T02:34:43.935Z,23.70
2022-10-19T02:35:46.131Z,23.70
2022-10-19T02:36:47.732Z,23.71
2022-10-19T02:37:49.483Z,23.71
2022-10-19T02:38:51.129Z,23.71
2022-10-19T02:39:52.769Z,23.68
2022-10-19T02:41:05.013Z,23.67
2022-10-19T02:42:17.964Z,23.65
2022-10-19T02:43:23.111Z,23.66
2022-10-19T02:44:33.962Z,23.66
2022-10-19T02:45:40.243Z,23.67
2022-10-19T02:46:45.496Z,23.68
2022-10-19T02:47:54.754Z,23.65
2022-10-19T02:48:58.058Z,23.68
2022-10-19T02:50:00.050Z,23.67
2022-10-19T02:51:01.619Z,23.67
2022-10-19T02:52:08.059Z,23.64
2022-10-19T02:53:09.663Z,23.64
2022-10-19T02:54:11.167Z,23.65
2022-10-19T02:55:12.707Z,23.64
2022-10-19T02:56:14.231Z,23.63
2022-10-19T02:57:20.087Z,23.62
2022-10-19T02:58:21.862Z,23.65
2022-10-19T02:59:23.999Z,23.66
2022-10-19T03:00:25.546Z,23.66
2022-10-19T03:01:27.392Z,23.66
2022-10-19T03:02:28.958Z,23.65
2022-10-19T03:03:30.521Z,23.63
2022-10-19T03:04:32.096Z,23.62
2022-10-19T03:05:33.624Z,23.61
2022-10-19T03:06:35.169Z,23.61
2022-10-19T03:07:37.044Z,23.62
2022-10-19T03:08:38.942Z,23.62
2022-10-19T03:09:41.272Z,23.62
2022-10-19T03:10:42.801Z,23.60
2022-10-19T03:11:44.315Z,23.60
2022-10-19T03:12:45.883Z,23.60
2022-10-19T03:14:53.940Z,23.59
2022-10-19T03:15:55.480Z,23.59
2022-10-19T03:16:57.002Z,23.59
2022-10-19T03:17:58.553Z,23.60
2022-10-19T03:19:00.089Z,23.59
2022-10-19T03:20:01.607Z,23.59
2022-10-19T03:21:05.933Z,23.59
2022-10-19T03:22:07.528Z,23.60
2022-10-19T03:23:09.063Z,23.60
2022-10-19T03:24:10.606Z,23.61
2022-10-19T03:25:12.117Z,23.60
2022-10-19T03:26:16.114Z,23.58
2022-10-19T03:27:17.637Z,23.62
2022-10-19T03:28:19.157Z,23.60
2022-10-19T03:29:20.671Z,23.56
2022-10-19T03:30:22.217Z,23.56
2022-10-19T03:31:23.831Z,23.54
2022-10-19T03:32:25.341Z,23.55
2022-10-19T03:33:26.923Z,23.57
2022-10-19T03:34:28.499Z,23.57
2022-10-19T03:35:30.044Z,23.58
2022-10-19T03:36:34.010Z,23.55
2022-10-19T03:37:35.871Z,23.58
2022-10-19T03:38:37.604Z,23.57
2022-10-19T03:39:39.151Z,23.58
2022-10-19T03:40:40.725Z,23.58
2022-10-19T03:41:42.418Z,23.58
2022-10-19T03:42:44.173Z,23.56
2022-10-19T03:43:45.837Z,23.56
2022-10-19T03:44:47.359Z,23.58
2022-10-19T03:45:48.894Z,23.56
2022-10-19T03:46:50.413Z,23.56
2022-10-19T03:47:52.593Z,23.56
2022-10-19T03:48:54.806Z,23.53
2022-10-19T03:49:56.329Z,23.53
2022-10-19T03:51:02.209Z,23.52
2022-10-19T03:52:04.004Z,23.54
2022-10-19T03:53:05.536Z,23.55
2022-10-19T03:54:12.298Z,23.55
2022-10-19T03:55:13.848Z,23.56
2022-10-19T03:56:20.018Z,23.57
2022-10-19T03:57:21.682Z,23.56
2022-10-19T03:58:23.193Z,23.55
2022-10-19T03:59:24.887Z,23.54
2022-10-19T04:00:26.476Z,23.54
2022-10-19T04:01:34.241Z,23.53
2022-10-19T04:02:35.797Z,23.54
2022-10-19T04:03:37.627Z,23.56
2022-10-19T04:04:39.175Z,23.56
2022-10-19T04:05:40.673Z,23.56
2022-10-19T04:06:44.974Z,23.58
2022-10-19T04:07:46.525Z,23.59
2022-10-19T04:08:49.356Z,23.59
2022-10-19T04:09:50.877Z,23.59
2022-10-19T04:10:52.621Z,23.59
2022-10-19T04:11:54.263Z,23.60
2022-10-19T04:12:55.808Z,23.60
2022-10-19T04:13:58.583Z,23.60
2022-10-19T04:15:00.241Z,23.59
2022-10-19T04:16:02.573Z,23.61
2022-10-19T04:17:04.589Z,23.59
2022-10-19T04:18:06.148Z,23.56
2022-10-19T04:19:08.552Z,23.57
2022-10-19T04:20:10.480Z,23.56
2022-10-19T04:21:21.150Z,23.53
2022-10-19T04:22:22.711Z,23.57
2022-10-19T04:23:26.896Z,23.57
2022-10-19T04:24:28.960Z,23.57
2022-10-19T04:25:30.489Z,23.57
2022-10-19T04:26:33.410Z,23.58
2022-10-19T04:27:35.221Z,23.59
2022-10-19T04:28:37.124Z,23.60
2022-10-19T04:29:38.707Z,23.59
2022-10-19T04:30:40.215Z,23.58
2022-10-19T04:31:41.942Z,23.57
2022-10-19T04:32:43.447Z,23.58
2022-10-19T04:34:51.530Z,23.58
2022-10-19T04:36:01.810Z,23.54
2022-10-19T04:37:03.418Z,23.56
2022-10-19T04:38:04.947Z,23.57
2022-10-19T04:39:07.108Z,23.56
2022-10-19T04:40:14.166Z,23.57
2022-10-19T04:41:19.199Z,23.57
2022-10-19T04:42:20.765Z,23.57
2022-10-19T04:43:22.805Z,23.59
2022-10-19T04:45:31.422Z,23.58
2022-10-19T04:46:33.399Z,23.60
2022-10-19T04:47:35.111Z,23.58
2022-10-19T04:48:38.804Z,23.58
2022-10-19T04:49:40.315Z,23.59
2022-10-19T04:50:41.879Z,23.58
2022-10-19T04:51:43.466Z,23.57
2022-10-19T04:52:45.680Z,23.61
2022-10-19T04:53:48.072Z,23.62
2022-10-19T04:54:49.565Z,23.66
2022-10-19T04:55:51.143Z,23.66
2022-10-19T04:56:53.923Z,23.65
2022-10-19T04:57:55.549Z,23.63
2022-10-19T04:58:58.682Z,23.60
2022-10-19T05:00:00.185Z,23.63
2022-10-19T05:01:13.325Z,23.58
2022-10-19T05:02:15.012Z,23.62
2022-10-19T05:03:17.558Z,23.60
2022-10-19T05:04:19.124Z,23.58
2022-10-19T05:05:20.640Z,23.59
2022-10-19T05:06:22.135Z,23.58
2022-10-19T05:07:23.752Z,23.58
2022-10-19T05:08:25.286Z,23.56
2022-10-19T05:09:26.799Z,23.59
2022-10-19T05:10:28.451Z,23.56
2022-10-19T05:11:30.006Z,23.56
2022-10-19T05:12:31.548Z,23.56
2022-10-19T05:13:33.587Z,23.54
2022-10-19T05:14:36.793Z,23.56
2022-10-19T05:15:40.650Z,23.55
2022-10-19T05:16:42.207Z,23.55
2022-10-19T05:17:43.889Z,23.57
2022-10-19T05:18:50.876Z,23.53
2022-10-19T05:19:52.450Z,23.57
2022-10-19T05:21:10.802Z,23.55
2022-10-19T05:22:12.382Z,23.57
2022-10-19T05:23:13.906Z,23.59
2022-10-19T05:24:15.485Z,23.59
2022-10-19T05:25:17.461Z,23.59
2022-10-19T05:26:21.395Z,23.62
2022-10-19T05:27:23.045Z,23.64
2022-10-19T05:28:24.566Z,23.69
2022-10-19T05:29:26.110Z,23.71
2022-10-19T05:30:27.677Z,23.74
2022-10-19T05:31:31.541Z,23.75
2022-10-19T05:32:33.112Z,23.77
2022-10-19T05:33:34.732Z,23.78
2022-10-19T05:34:36.239Z,23.80
2022-10-19T05:35:37.745Z,23.81
2022-10-19T05:36:40.830Z,23.81
2022-10-19T05:37:42.427Z,23.78
2022-10-19T05:38:45.951Z,23.80
2022-10-19T05:39:47.671Z,23.80
2022-10-19T05:40:52.958Z,23.81
2022-10-19T05:41:55.355Z,23.82
2022-10-19T05:42:56.951Z,23.80
2022-10-19T05:44:01.023Z,23.80
2022-10-19T05:45:02.547Z,23.79
2022-10-19T05:46:06.039Z,23.81
2022-10-19T05:47:07.638Z,23.78
2022-10-19T05:48:09.210Z,23.77
2022-10-19T05:49:12.182Z,23.75
2022-10-19T05:50:13.703Z,23.76
2022-10-19T05:51:18.221Z,23.74
2022-10-19T05:52:19.760Z,23.74
2022-10-19T05:53:21.493Z,23.71
2022-10-19T05:54:26.310Z,23.71
2022-10-19T05:55:29.947Z,23.71
2022-10-19T05:56:32.537Z,23.70
2022-10-19T05:57:34.319Z,23.70
2022-10-19T05:58:36.101Z,23.72
2022-10-19T05:59:37.687Z,23.72
2022-10-19T06:00:39.737Z,23.70
2022-10-19T06:01:41.374Z,23.70
2022-10-19T06:02:42.914Z,23.67
2022-10-19T06:03:45.123Z,23.68
2022-10-19T06:04:46.658Z,23.67
2022-10-19T06:05:52.764Z,23.65
2022-10-19T06:06:54.317Z,23.66
2022-10-19T06:07:55.869Z,23.70
2022-10-19T06:08:59.022Z,23.70
2022-10-19T06:10:00.566Z,23.67
2022-10-19T06:11:13.644Z,23.68
2022-10-19T06:12:16.346Z,23.68
2022-10-19T06:13:20.061Z,23.70
2022-10-19T06:14:21.589Z,23.67
2022-10-19T06:15:23.112Z,23.68
2022-10-19T06:16:26.834Z,23.66
2022-10-19T06:17:29.108Z,23.65
2022-10-19T06:18:30.778Z,23.63
2022-10-19T06:19:32.425Z,23.66
2022-10-19T06:20:38.049Z,23.65
2022-10-19T06:21:41.981Z,23.65
2022-10-19T06:22:46.476Z,23.63
2022-10-19T06:23:52.738Z,23.63
2022-10-19T06:24:54.334Z,23.66
2022-10-19T06:25:55.904Z,23.66
2022-10-19T06:26:57.459Z,23.66
2022-10-19T06:27:59.805Z,23.65
2022-10-19T06:29:02.460Z,23.65
2022-10-19T06:30:04.408Z,23.67
2022-10-19T06:31:08.499Z,23.70
2022-10-19T06:32:11.101Z,23.66
2022-10-19T06:33:12.642Z,23.67
2022-10-19T06:34:14.289Z,23.64
2022-10-19T06:35:16.205Z,23.63
2022-10-19T06:36:20.403Z,23.65
2022-10-19T06:37:21.939Z,23.66
2022-10-19T06:38:23.455Z,23.64
2022-10-19T06:39:25.006Z,23.65
2022-10-19T06:40:26.634Z,23.64
2022-10-19T06:41:29.377Z,23.64
2022-10-19T06:42:30.890Z,23.64
2022-10-19T06:43:32.975Z,23.63
2022-10-19T06:44:34.539Z,23.63
2022-10-19T06:45:39.108Z,23.63
2022-10-19T06:46:40.672Z,23.64
2022-10-19T06:48:58.844Z,23.68
2022-10-19T06:50:00.698Z,23.68
2022-10-19T06:51:06.398Z,23.65
2022-10-19T06:52:08.249Z,23.66
2022-10-19T06:53:10.149Z,23.67
2022-10-19T06:54:11.758Z,23.65
2022-10-19T06:55:13.385Z,23.66
2022-10-19T06:56:15.030Z,23.67
2022-10-19T06:57:16.576Z,23.64
2022-10-19T06:58:18.221Z,23.67
2022-10-19T06:59:19.813Z,23.67
2022-10-19T07:00:21.337Z,23.65
2022-10-19T07:01:23.083Z,23.66
2022-10-19T07:02:24.681Z,23.67
2022-10-19T07:03:28.099Z,23.67
2022-10-19T07:04:29.629Z,23.66
2022-10-19T07:05:31.164Z,23.67
2022-10-19T07:06:32.750Z,23.67
2022-10-19T07:07:34.957Z,23.66
2022-10-19T07:08:38.894Z,23.67
2022-10-19T07:09:40.469Z,23.70
2022-10-19T07:10:42.002Z,23.65
2022-10-19T07:11:46.068Z,23.65
2022-10-19T07:12:47.850Z,23.67
2022-10-19T07:13:49.498Z,23.68
2022-10-19T07:14:51.186Z,23.65
2022-10-19T07:16:02.699Z,23.61
2022-10-19T07:17:07.949Z,23.64
2022-10-19T07:18:09.471Z,23.67
2022-10-19T07:19:11.749Z,23.64
2022-10-19T07:20:13.269Z,23.63
2022-10-19T07:21:16.349Z,23.63
2022-10-19T07:22:22.206Z,23.64
2022-10-19T07:23:28.769Z,23.68
2022-10-19T07:24:30.330Z,23.68
2022-10-19T07:25:31.977Z,23.67
2022-10-19T07:26:33.877Z,23.68
2022-10-19T07:27:37.816Z,23.69
2022-10-19T07:28:40.878Z,23.68
2022-10-19T07:29:42.527Z,23.68
2022-10-19T07:30:44.044Z,23.67
2022-10-19T07:31:45.605Z,23.70
2022-10-19T07:32:47.303Z,23.71
2022-10-19T07:33:53.788Z,23.66
2022-10-19T07:34:55.423Z,23.70
2022-10-19T07:36:01.725Z,23.71
2022-10-19T07:37:03.353Z,23.72
2022-10-19T07:38:04.926Z,23.73
2022-10-19T07:39:07.897Z,23.74
2022-10-19T07:40:10.161Z,23.73
2022-10-19T07:41:14.717Z,23.73
2022-10-19T07:42:16.361Z,23.75
2022-10-19T07:43:17.982Z,23.75
2022-10-19T07:44:19.529Z,23.75
2022-10-19T07:45:21.807Z,23.75
2022-10-19T07:46:26.254Z,23.72
2022-10-19T07:47:27.826Z,23.73
2022-10-19T07:48:29.835Z,23.75
2022-10-19T07:49:31.375Z,23.75
2022-10-19T07:50:32.911Z,23.77
2022-10-19T07:51:34.481Z,23.75
2022-10-19T07:52:37.055Z,23.77
2022-10-19T07:53:39.612Z,23.78
2022-10-19T07:54:41.326Z,23.77
2022-10-19T07:55:43.341Z,23.79
2022-10-19T07:56:44.871Z,23.79
2022-10-19T07:57:50.254Z,23.76
2022-10-19T07:58:54.025Z,23.81
2022-10-19T07:59:55.602Z,23.80
2022-10-19T08:01:02.382Z,23.78
2022-10-19T08:02:05.026Z,23.80
2022-10-19T08:04:59.415Z,23.81
2022-10-19T08:05:49.689Z,23.81
2022-10-19T08:06:51.264Z,23.80
2022-10-19T08:07:52.810Z,23.80
2022-10-19T08:08:55.511Z,23.77
2022-10-19T08:09:57.131Z,23.78
2022-10-19T08:11:06.043Z,23.78
2022-10-19T08:12:11.159Z,23.82
2022-10-19T08:13:15.468Z,23.82
2022-10-19T08:14:17.070Z,23.83
2022-10-19T08:15:18.825Z,23.81
2022-10-19T08:16:41.659Z,23.77
2022-10-19T08:17:43.409Z,23.81
2022-10-19T08:18:44.962Z,23.84
2022-10-19T08:19:47.050Z,23.87
2022-10-19T08:20:49.915Z,23.89
2022-10-19T08:21:51.459Z,23.88
2022-10-19T08:22:56.489Z,23.89
2022-10-19T08:24:00.902Z,23.91
2022-10-19T08:25:02.543Z,23.91
2022-10-19T08:26:04.125Z,23.90
2022-10-19T08:27:05.731Z,23.90
2022-10-19T08:28:07.303Z,23.88
2022-10-19T08:29:13.085Z,23.86
2022-10-19T08:30:14.657Z,23.85
2022-10-19T08:31:19.394Z,23.86
2022-10-19T08:32:21.033Z,23.89
2022-10-19T08:33:22.592Z,23.88
2022-10-19T08:34:24.315Z,23.87
2022-10-19T08:35:25.860Z,23.87
2022-10-19T08:36:31.245Z,23.84
2022-10-19T08:37:44.053Z,23.82
2022-10-19T08:38:48.455Z,23.86
2022-10-19T08:39:49.989Z,23.87
2022-10-19T08:40:51.569Z,23.86
2022-10-19T08:42:03.688Z,23.87
2022-10-19T08:43:26.674Z,23.81
2022-10-19T08:45:00.861Z,23.81
2022-10-19T08:46:24.842Z,23.80
2022-10-19T08:47:41.774Z,23.78
2022-10-19T08:48:43.747Z,23.80
2022-10-19T08:49:46.866Z,23.79
2022-10-19T08:50:48.845Z,23.78
2022-10-19T08:51:57.673Z,23.75
2022-10-19T08:53:03.775Z,23.80
2022-10-19T08:54:12.989Z,23.80
2022-10-19T08:55:20.694Z,23.82
2022-10-19T08:56:50.623Z,23.80
2022-10-19T08:57:58.155Z,23.83
2022-10-19T08:59:29.117Z,23.82
2022-10-19T09:00:42.694Z,23.86
2022-10-19T09:01:54.380Z,23.81
2022-10-19T09:03:11.270Z,23.83
2022-10-19T09:04:36.571Z,23.83
2022-10-19T09:05:45.654Z,23.82
2022-10-19T09:07:17.082Z,23.79
2022-10-19T09:08:19.867Z,23.79
2022-10-19T09:09:21.458Z,23.80
2022-10-19T09:10:28.705Z,23.79
2022-10-19T09:11:36.832Z,23.75
2022-10-19T09:12:47.981Z,23.78
2022-10-19T09:14:04.829Z,23.77
2022-10-19T09:15:31.914Z,23.78
2022-10-19T09:16:35.023Z,23.82
2022-10-19T09:17:36.744Z,23.84
2022-10-19T09:18:38.642Z,23.81
2022-10-19T09:19:40.276Z,23.83
2022-10-19T09:20:45.762Z,23.81
2022-10-19T09:21:51.606Z,23.82
2022-10-19T09:23:03.797Z,23.82
2022-10-19T09:24:09.737Z,23.83
2022-10-19T09:25:20.052Z,23.81
2022-10-19T09:26:25.604Z,23.85
2022-10-19T09:27:35.591Z,23.85
2022-10-19T09:28:39.785Z,23.86
2022-10-19T09:29:48.039Z,23.84
2022-10-19T09:30:52.227Z,23.85
2022-10-19T09:31:59.795Z,23.84
2022-10-19T09:33:02.320Z,23.84
2022-10-19T09:34:12.914Z,23.81
2022-10-19T09:35:31.399Z,23.81
2022-10-19T09:36:50.761Z,23.82
2022-10-19T09:37:53.543Z,23.84
2022-10-19T09:38:55.094Z,23.86
2022-10-19T09:39:56.873Z,23.86
2022-10-19T09:41:07.538Z,23.86
2022-10-19T09:42:24.553Z,23.81
2022-10-19T09:43:28.223Z,23.85
2022-10-19T09:44:30.909Z,23.88
2022-10-19T09:45:47.873Z,23.84
2022-10-19T09:47:17.470Z,23.84
2022-10-19T09:48:38.142Z,23.80
2022-10-19T09:49:45.169Z,23.84
2022-10-19T09:50:55.469Z,23.85
2022-10-19T09:51:56.992Z,23.85
2022-10-19T09:53:02.755Z,23.85
2022-10-19T09:54:04.308Z,23.85
2022-10-19T09:55:28.342Z,23.82
2022-10-19T09:56:29.888Z,23.86
2022-10-19T09:57:31.936Z,23.87
2022-10-19T09:58:35.229Z,23.86
2022-10-19T09:59:37.337Z,23.86
2022-10-19T10:00:45.117Z,23.85
2022-10-19T10:01:46.690Z,23.84
2022-10-19T10:02:55.757Z,23.82
2022-10-19T10:04:18.274Z,23.80
2022-10-19T10:05:20.634Z,23.86
2022-10-19T10:06:22.586Z,23.87
2022-10-19T10:07:33.053Z,23.84
2022-10-19T10:08:38.718Z,23.84
2022-10-19T10:09:43.388Z,23.86
2022-10-19T10:10:47.676Z,23.87
2022-10-19T10:11:51.359Z,23.91
2022-10-19T10:12:53.878Z,23.89
2022-10-19T10:13:57.624Z,23.90
2022-10-19T10:14:59.302Z,23.91
2022-10-19T10:16:03.995Z,23.89
2022-10-19T10:17:16.789Z,23.85
2022-10-19T10:18:19.336Z,23.90
2022-10-19T10:19:27.268Z,23.93
2022-10-19T10:20:32.481Z,23.91
2022-10-19T10:21:45.238Z,23.90
2022-10-19T10:23:22.917Z,23.90
2022-10-19T10:24:32.075Z,23.96
2022-10-19T10:25:36.343Z,23.97
2022-10-19T10:26:41.256Z,23.95
2022-10-19T10:27:42.794Z,23.93
2022-10-19T10:28:49.822Z,23.94
2022-10-19T10:31:06.253Z,23.95
2022-10-19T10:32:21.574Z,23.96
2022-10-19T10:33:40.695Z,23.96
2022-10-19T10:35:01.233Z,23.93
2022-10-19T10:36:09.912Z,23.96
2022-10-19T10:37:20.341Z,23.94
2022-10-19T10:38:26.490Z,23.92
2022-10-19T10:39:29.181Z,23.94
2022-10-19T10:40:31.568Z,23.94
2022-10-19T10:41:43.388Z,23.95
2022-10-19T10:42:47.624Z,23.95
2022-10-19T10:44:06.637Z,23.95
2022-10-19T10:45:22.184Z,23.91
2022-10-19T10:46:28.761Z,23.90
2022-10-19T10:47:30.984Z,23.92
2022-10-19T10:48:40.933Z,23.87
2022-10-19T10:49:43.294Z,23.90
2022-10-19T10:50:45.245Z,23.89
2022-10-19T10:51:53.040Z,23.91
2022-10-19T10:53:07.016Z,23.85
2022-10-19T10:54:17.679Z,23.89
2022-10-19T10:55:19.397Z,23.94
2022-10-19T10:56:27.649Z,23.90
2022-10-19T10:57:36.045Z,23.90
2022-10-19T10:59:10.189Z,23.90
2022-10-19T11:00:19.096Z,23.95
2022-10-19T11:01:23.747Z,23.95
2022-10-19T11:03:29.222Z,23.96
2022-10-19T11:04:37.050Z,23.92
2022-10-19T11:05:43.107Z,23.92
2022-10-19T11:06:54.835Z,23.95
2022-10-19T11:08:33.623Z,23.91
2022-10-19T11:09:42.211Z,23.99
2022-10-19T11:10:51.251Z,23.99
2022-10-19T11:11:56.139Z,24.01
2022-10-19T11:13:23.635Z,23.97
2022-10-19T11:14:46.906Z,23.96
2022-10-19T11:15:56.078Z,24.01
2022-10-19T11:17:06.001Z,24.02
2022-10-19T11:18:10.329Z,24.02
2022-10-19T11:19:17.758Z,24.02
2022-10-19T11:20:19.593Z,24.03
2022-10-19T11:21:39.202Z,24.01
2022-10-19T11:22:43.690Z,24.00
2022-10-19T11:24:00.215Z,23.98
2022-10-19T11:25:32.827Z,23.97
2022-10-19T11:26:50.490Z,23.98
2022-10-19T11:28:21.197Z,23.99
2022-10-19T11:30:00.407Z,24.02
2022-10-19T11:31:19.194Z,24.02
2022-10-19T11:32:50.095Z,24.08
2022-10-19T11:34:00.350Z,24.07
2022-10-19T11:35:20.156Z,24.06
2022-10-19T11:36:49.034Z,24.04
2022-10-19T11:38:24.166Z,24.03
2022-10-19T11:39:40.752Z,24.08
2022-10-19T11:41:23.860Z,24.04
2022-10-19T11:42:34.396Z,24.09
2022-10-19T11:43:57.801Z,24.06
2022-10-19T11:45:32.111Z,24.06
2022-10-19T11:47:06.405Z,24.06
2022-10-19T11:48:43.773Z,24.06
2022-10-19T11:50:22.694Z,24.13
2022-10-19T11:51:43.068Z,24.16
2022-10-19T11:52:50.444Z,24.17
2022-10-19T11:54:01.441Z,24.20
2022-10-19T11:55:08.745Z,24.23
2022-10-19T11:56:17.400Z,24.21
2022-10-19T11:57:27.593Z,24.25
2022-10-19T11:58:42.230Z,24.24
2022-10-19T12:00:14.535Z,24.21
2022-10-19T12:01:40.364Z,24.26
2022-10-19T12:02:50.878Z,24.22
2022-10-19T12:04:23.394Z,24.19
2022-10-19T12:05:30.874Z,24.20
2022-10-19T12:06:35.448Z,24.21
2022-10-19T12:08:02.927Z,24.21
2022-10-19T12:09:12.096Z,24.19
2022-10-19T12:10:25.615Z,24.13
2022-10-19T12:11:45.691Z,24.15
2022-10-19T12:12:55.401Z,24.16
2022-10-19T12:14:09.290Z,24.16
2022-10-19T12:15:23.643Z,24.17
2022-10-19T12:16:35.972Z,24.20
2022-10-19T12:17:39.452Z,24.22
2022-10-19T12:18:48.822Z,24.20
2022-10-19T12:19:55.665Z,24.21
2022-10-19T12:21:01.310Z,24.19
2022-10-19T12:22:07.023Z,24.20
2022-10-19T12:23:23.602Z,24.17
2022-10-19T12:24:26.398Z,24.21
2022-10-19T12:25:28.582Z,24.21
2022-10-19T12:26:35.558Z,24.19
2022-10-19T12:27:40.085Z,24.19
2022-10-19T12:28:47.482Z,24.20
2022-10-19T12:29:50.063Z,24.21
2022-10-19T12:30:53.313Z,24.21
2022-10-19T12:31:57.271Z,24.19
2022-10-19T12:33:28.167Z,24.19
2022-10-19T12:34:51.209Z,24.20
2022-10-19T12:36:04.343Z,24.22
2022-10-19T12:37:39.829Z,24.20
2022-10-19T12:39:06.297Z,24.20
2022-10-19T12:40:23.562Z,24.20
2022-10-19T12:42:04.085Z,24.21
2022-10-19T12:43:28.005Z,24.21
2022-10-19T12:44:53.758Z,24.21
2022-10-19T12:46:49.905Z,24.22
2022-10-19T12:48:14.446Z,24.21
2022-10-19T12:49:31.133Z,24.15
2022-10-19T12:50:56.725Z,24.19
2022-10-19T12:51:59.894Z,24.23
2022-10-19T12:53:01.476Z,24.22
2022-10-19T12:54:09.631Z,24.17
2022-10-19T12:55:34.790Z,24.17
2022-10-19T12:56:48.631Z,24.20
2022-10-19T12:57:59.426Z,24.21
2022-10-19T12:59:01.853Z,24.24
2022-10-19T13:00:20.274Z,24.17
2022-10-19T13:01:29.639Z,24.18
2022-10-19T13:02:35.371Z,24.20
2022-10-19T13:03:40.573Z,24.21
2022-10-19T13:04:53.341Z,24.20
2022-10-19T13:06:00.845Z,24.21
2022-10-19T13:07:10.929Z,24.20
2022-10-19T13:08:28.633Z,24.20
2022-10-19T13:09:31.805Z,24.21
2022-10-19T13:10:33.916Z,24.24
2022-10-19T13:11:38.359Z,24.23
2022-10-19T13:12:46.302Z,24.20
2022-10-19T13:14:02.741Z,24.19
2022-10-19T13:15:05.116Z,24.22
2022-10-19T13:16:29.143Z,24.20
2022-10-19T13:17:36.726Z,24.26
2022-10-19T13:19:00.535Z,24.22
2022-10-19T13:20:14.457Z,24.20
2022-10-19T13:21:47.748Z,24.17
2022-10-19T13:23:09.490Z,24.22
2022-10-19T13:24:28.140Z,24.23
2022-10-19T13:25:31.735Z,24.27
2022-10-19T13:26:35.489Z,24.26
2022-10-19T13:27:39.509Z,24.26
2022-10-19T13:28:53.463Z,24.24
2022-10-19T13:29:55.036Z,24.25
2022-10-19T13:31:07.071Z,24.23
2022-10-19T13:32:41.062Z,24.20
2022-10-19T13:33:48.372Z,24.25
2022-10-19T13:34:49.958Z,24.28
2022-10-19T13:36:00.766Z,24.25
2022-10-19T13:37:03.838Z,24.25
2022-10-19T13:38:21.931Z,24.22
2022-10-19T13:39:28.377Z,24.27
2022-10-19T13:40:38.549Z,24.28
2022-10-19T13:41:47.119Z,24.29
2022-10-19T13:42:58.540Z,24.28
2022-10-19T13:44:06.850Z,24.32
2022-10-19T13:45:21.761Z,24.27
2022-10-19T13:46:41.170Z,24.31
2022-10-19T13:47:47.580Z,24.33
2022-10-19T13:49:27.875Z,24.31
2022-10-19T13:50:54.266Z,24.32
2022-10-19T13:52:26.678Z,24.29
2022-10-19T13:54:03.519Z,24.27
2022-10-19T13:55:16.910Z,24.31
2022-10-19T13:56:31.085Z,24.29
2022-10-19T13:58:02.667Z,24.24
2022-10-19T14:00:55.725Z,24.24
2022-10-19T14:02:34.367Z,24.25
2022-10-19T14:03:54.748Z,24.23
2022-10-19T14:05:05.485Z,24.25
2022-10-19T14:06:44.383Z,24.24
2022-10-19T14:08:06.119Z,24.29
2022-10-19T14:09:27.811Z,24.26
2022-10-19T14:10:33.119Z,24.28
2022-10-19T14:11:48.328Z,24.28
2022-10-19T14:12:51.030Z,24.27
2022-10-19T14:14:13.719Z,24.18
2022-10-19T14:15:49.828Z,24.12
2022-10-19T14:16:58.435Z,24.18
2022-10-19T14:18:05.813Z,24.19
2022-10-19T14:19:13.427Z,24.19
2022-10-19T14:20:39.001Z,24.17
2022-10-19T14:21:41.231Z,24.25
2022-10-19T14:22:42.774Z,24.24
2022-10-19T14:23:44.383Z,24.26
2022-10-19T14:24:45.960Z,24.27
2022-10-19T14:25:57.137Z,24.24
2022-10-19T14:27:07.675Z,24.26
2022-10-19T14:28:09.209Z,24.30
2022-10-19T14:29:12.859Z,24.25
2022-10-19T14:30:27.466Z,24.23
2022-10-19T14:31:35.397Z,24.23
2022-10-19T14:32:37.038Z,24.27
2022-10-19T14:33:41.201Z,24.25
2022-10-19T14:34:45.253Z,24.28
2022-10-19T14:35:50.109Z,24.28
2022-10-19T14:36:51.792Z,24.28
2022-10-19T14:37:53.470Z,24.28